sensor_id;sensor_type;location;lat;lon;timestamp;pressure;altitude;pressure_sealevel;temperature;humidity
10482;BME280;5288;42.334;23.876;2022-11-27T00:00:55;56450.63;;;-140.56;72.99
10482;BME280;5288;42.334;23.876;2022-11-27T00:03:22;56438.78;;;-140.56;73.28
10482;BME280;5288;42.334;23.876;2022-11-27T00:05:53;56450.63;;;-140.56;72.73
10482;BME280;5288;42.334;23.876;2022-11-27T00:08:21;56460.50;;;-140.56;72.41
10482;BME280;5288;42.334;23.876;2022-11-27T00:10:48;56454.59;;;-140.56;72.74
10482;BME280;5288;42.334;23.876;2022-11-27T00:13:16;56436.78;;;-140.56;72.79
10482;BME280;5288;42.334;23.876;2022-11-27T00:15:43;56413.06;;;-140.56;72.76
10482;BME280;5288;42.334;23.876;2022-11-27T00:18:11;56434.81;;;-140.56;72.09
10482;BME280;5288;42.334;23.876;2022-11-27T00:20:38;56432.84;;;-140.56;72.25
10482;BME280;5288;42.334;23.876;2022-11-27T00:23:05;56405.16;;;-140.56;72.18
10482;BME280;5288;42.334;23.876;2022-11-27T00:25:32;56432.84;;;-140.56;72.15
10482;BME280;5288;42.334;23.876;2022-11-27T00:27:59;56448.66;;;-140.56;72.00
10482;BME280;5288;42.334;23.876;2022-11-27T00:30:27;56458.53;;;-140.56;72.43
10482;BME280;5288;42.334;23.876;2022-11-27T00:32:55;56476.31;;;-140.56;71.85
10482;BME280;5288;42.334;23.876;2022-11-27T00:35:22;56482.25;;;-140.56;71.83
10482;BME280;5288;42.334;23.876;2022-11-27T00:37:49;56448.66;;;-140.56;71.73
10482;BME280;5288;42.334;23.876;2022-11-27T00:40:16;56456.56;;;-140.56;72.65
10482;BME280;5288;42.334;23.876;2022-11-27T00:42:43;56464.47;;;-140.56;72.84
10482;BME280;5288;42.334;23.876;2022-11-27T00:45:10;56452.59;;;-140.56;73.05
10482;BME280;5288;42.334;23.876;2022-11-27T00:47:38;56460.50;;;-140.56;72.61
10482;BME280;5288;42.334;23.876;2022-11-27T00:50:07;56452.59;;;-140.56;72.58
10482;BME280;5288;42.334;23.876;2022-11-27T00:52:34;56480.28;;;-140.56;71.82
10482;BME280;5288;42.334;23.876;2022-11-27T00:55:02;56456.56;;;-140.56;72.58
10482;BME280;5288;42.334;23.876;2022-11-27T00:57:29;56450.63;;;-140.56;71.98
10482;BME280;5288;42.334;23.876;2022-11-27T00:59:56;56450.63;;;-140.56;72.33
10482;BME280;5288;42.334;23.876;2022-11-27T01:02:27;56474.34;;;-140.56;71.73
10482;BME280;5288;42.334;23.876;2022-11-27T01:04:55;56488.19;;;-140.56;72.03
10482;BME280;5288;42.334;23.876;2022-11-27T01:07:23;56422.97;;;-140.56;71.58
10482;BME280;5288;42.334;23.876;2022-11-27T01:09:51;56478.28;;;-140.56;71.07
10482;BME280;5288;42.334;23.876;2022-11-27T01:12:18;56450.63;;;-140.56;71.19
10482;BME280;5288;42.334;23.876;2022-11-27T01:14:45;56460.50;;;-140.56;71.28
10482;BME280;5288;42.334;23.876;2022-11-27T01:17:12;56436.78;;;-140.56;71.36
10482;BME280;5288;42.334;23.876;2022-11-27T01:19:39;56422.97;;;-140.56;71.28
10482;BME280;5288;42.334;23.876;2022-11-27T01:22:07;56422.97;;;-140.56;71.39
10482;BME280;5288;42.334;23.876;2022-11-27T01:24:34;56448.66;;;-140.56;71.04
10482;BME280;5288;42.334;23.876;2022-11-27T01:27:01;56460.50;;;-140.56;71.40
10482;BME280;5288;42.334;23.876;2022-11-27T01:29:28;56486.19;;;-140.56;71.64
10482;BME280;5288;42.334;23.876;2022-11-27T01:31:55;56458.53;;;-140.56;71.60
10482;BME280;5288;42.334;23.876;2022-11-27T01:34:22;56442.72;;;-140.56;71.43
10482;BME280;5288;42.334;23.876;2022-11-27T01:36:49;56436.78;;;-140.56;71.99
10482;BME280;5288;42.334;23.876;2022-11-27T01:39:19;56474.34;;;-140.56;71.45
10482;BME280;5288;42.334;23.876;2022-11-27T01:41:48;56452.59;;;-140.56;71.83
10482;BME280;5288;42.334;23.876;2022-11-27T01:44:50;56448.66;;;-140.56;71.22
10482;BME280;5288;42.334;23.876;2022-11-27T01:47:28;56468.41;;;-140.56;71.50
10482;BME280;5288;42.334;23.876;2022-11-27T01:50:03;56482.25;;;-140.56;71.11
10482;BME280;5288;42.334;23.876;2022-11-27T01:52:34;56458.53;;;-140.56;70.98
10482;BME280;5288;42.334;23.876;2022-11-27T01:55:06;56488.19;;;-140.56;71.32
10482;BME280;5288;42.334;23.876;2022-11-27T01:57:39;56490.16;;;-140.56;71.61
10482;BME280;5288;42.334;23.876;2022-11-27T02:00:08;56476.31;;;-140.56;71.69
10482;BME280;5288;42.334;23.876;2022-11-27T02:02:38;56476.31;;;-140.56;71.75
10482;BME280;5288;42.334;23.876;2022-11-27T02:05:05;56438.78;;;-140.56;71.82
10482;BME280;5288;42.334;23.876;2022-11-27T02:07:33;56498.06;;;-140.56;71.27
10482;BME280;5288;42.334;23.876;2022-11-27T02:10:00;56460.50;;;-140.56;71.43
10482;BME280;5288;42.334;23.876;2022-11-27T02:12:33;56442.72;;;-140.56;71.64
10482;BME280;5288;42.334;23.876;2022-11-27T02:15:07;56424.94;;;-140.56;71.55
10482;BME280;5288;42.334;23.876;2022-11-27T02:17:40;56436.78;;;-140.56;71.53
10482;BME280;5288;42.334;23.876;2022-11-27T02:20:24;56434.81;;;-140.56;71.66
10482;BME280;5288;42.334;23.876;2022-11-27T02:26:26;56462.47;;;-140.56;72.05
10482;BME280;5288;42.334;23.876;2022-11-27T02:29:00;56454.59;;;-140.56;71.72
10482;BME280;5288;42.334;23.876;2022-11-27T02:31:36;56440.75;;;-140.56;72.13
10482;BME280;5288;42.334;23.876;2022-11-27T02:34:12;56442.72;;;-140.56;71.78
10482;BME280;5288;42.334;23.876;2022-11-27T02:36:46;56444.69;;;-140.56;72.29
10482;BME280;5288;42.334;23.876;2022-11-27T02:39:17;56448.66;;;-140.56;72.78
10482;BME280;5288;42.334;23.876;2022-11-27T02:41:49;56456.56;;;-140.56;72.47
10482;BME280;5288;42.334;23.876;2022-11-27T02:44:20;56474.34;;;-140.56;72.73
10482;BME280;5288;42.334;23.876;2022-11-27T02:46:49;56446.69;;;-140.56;72.94
10482;BME280;5288;42.334;23.876;2022-11-27T02:49:17;56436.78;;;-140.56;72.83
10482;BME280;5288;42.334;23.876;2022-11-27T02:51:50;56464.47;;;-140.56;72.75
10482;BME280;5288;42.334;23.876;2022-11-27T02:54:26;56458.53;;;-140.56;73.00
10482;BME280;5288;42.334;23.876;2022-11-27T02:56:55;56417.03;;;-140.56;72.81
10482;BME280;5288;42.334;23.876;2022-11-27T02:59:26;56478.28;;;-140.56;73.10
10482;BME280;5288;42.334;23.876;2022-11-27T03:02:00;56454.59;;;-140.56;72.70
10482;BME280;5288;42.334;23.876;2022-11-27T03:04:30;56464.47;;;-140.56;73.33
10482;BME280;5288;42.334;23.876;2022-11-27T03:07:03;56460.50;;;-140.56;72.96
10482;BME280;5288;42.334;23.876;2022-11-27T03:09:35;56466.44;;;-140.56;72.71
10482;BME280;5288;42.334;23.876;2022-11-27T03:12:03;56462.47;;;-140.56;72.59
10482;BME280;5288;42.334;23.876;2022-11-27T03:14:33;56448.66;;;-140.56;72.79
10482;BME280;5288;42.334;23.876;2022-11-27T03:17:10;56456.56;;;-140.56;73.33
10482;BME280;5288;42.334;23.876;2022-11-27T03:19:47;56448.66;;;-140.56;73.15
10482;BME280;5288;42.334;23.876;2022-11-27T03:22:15;56424.94;;;-140.56;73.58
10482;BME280;5288;42.334;23.876;2022-11-27T03:24:43;56458.53;;;-140.56;74.07
10482;BME280;5288;42.334;23.876;2022-11-27T03:27:11;56458.53;;;-140.56;73.86
10482;BME280;5288;42.334;23.876;2022-11-27T03:29:44;56468.41;;;-140.56;73.60
10482;BME280;5288;42.334;23.876;2022-11-27T03:32:13;56446.69;;;-140.56;73.34
10482;BME280;5288;42.334;23.876;2022-11-27T03:34:41;56452.59;;;-140.56;73.77
10482;BME280;5288;42.334;23.876;2022-11-27T03:37:08;56450.63;;;-140.56;73.29
10482;BME280;5288;42.334;23.876;2022-11-27T03:39:35;56442.72;;;-140.56;73.35
10482;BME280;5288;42.334;23.876;2022-11-27T03:42:09;56420.97;;;-140.56;73.62
10482;BME280;5288;42.334;23.876;2022-11-27T03:44:45;56444.69;;;-140.56;74.00
10482;BME280;5288;42.334;23.876;2022-11-27T03:47:24;56450.63;;;-140.56;73.62
10482;BME280;5288;42.334;23.876;2022-11-27T03:50:06;56462.47;;;-140.56;73.98
10482;BME280;5288;42.334;23.876;2022-11-27T03:52:51;56452.59;;;-140.56;74.43
10482;BME280;5288;42.334;23.876;2022-11-27T03:55:23;56436.78;;;-140.56;73.63
10482;BME280;5288;42.334;23.876;2022-11-27T03:57:55;56442.72;;;-140.56;73.61
10482;BME280;5288;42.334;23.876;2022-11-27T04:00:30;56446.69;;;-140.56;73.83
10482;BME280;5288;42.334;23.876;2022-11-27T04:02:58;56462.47;;;-140.56;74.50
10482;BME280;5288;42.334;23.876;2022-11-27T04:05:25;56444.69;;;-140.56;73.80
10482;BME280;5288;42.334;23.876;2022-11-27T04:07:52;56472.38;;;-140.56;74.26
10482;BME280;5288;42.334;23.876;2022-11-27T04:10:20;56432.84;;;-140.56;73.51
10482;BME280;5288;42.334;23.876;2022-11-27T04:12:47;56436.78;;;-140.56;73.20
10482;BME280;5288;42.334;23.876;2022-11-27T04:15:14;56476.31;;;-140.56;72.92
10482;BME280;5288;42.334;23.876;2022-11-27T04:17:42;56420.97;;;-140.56;73.26
10482;BME280;5288;42.334;23.876;2022-11-27T04:20:11;56446.69;;;-140.56;73.16
10482;BME280;5288;42.334;23.876;2022-11-27T04:22:39;56426.91;;;-140.56;73.28
10482;BME280;5288;42.334;23.876;2022-11-27T04:25:06;56494.09;;;-140.56;73.48
10482;BME280;5288;42.334;23.876;2022-11-27T04:27:33;56440.75;;;-140.56;73.45
10482;BME280;5288;42.334;23.876;2022-11-27T04:30:00;56478.28;;;-140.56;72.94
10482;BME280;5288;42.334;23.876;2022-11-27T04:32:27;56452.59;;;-140.56;72.90
10482;BME280;5288;42.334;23.876;2022-11-27T04:34:56;56466.44;;;-140.56;72.49
10482;BME280;5288;42.334;23.876;2022-11-27T04:37:23;56450.63;;;-140.56;73.06
10482;BME280;5288;42.334;23.876;2022-11-27T04:39:50;56448.66;;;-140.56;72.75
10482;BME280;5288;42.334;23.876;2022-11-27T04:42:17;56480.28;;;-140.56;73.01
10482;BME280;5288;42.334;23.876;2022-11-27T04:44:44;56436.78;;;-140.56;73.06
10482;BME280;5288;42.334;23.876;2022-11-27T04:47:11;56452.59;;;-140.56;72.64
10482;BME280;5288;42.334;23.876;2022-11-27T04:49:38;56468.41;;;-140.56;73.12
10482;BME280;5288;42.334;23.876;2022-11-27T04:52:07;56456.56;;;-140.56;73.20
10482;BME280;5288;42.334;23.876;2022-11-27T04:54:35;56420.97;;;-140.56;73.15
10482;BME280;5288;42.334;23.876;2022-11-27T04:57:02;56442.72;;;-140.56;73.61
10482;BME280;5288;42.334;23.876;2022-11-27T04:59:30;56478.28;;;-140.56;73.27
10482;BME280;5288;42.334;23.876;2022-11-27T05:01:57;56442.72;;;-140.56;73.42
10482;BME280;5288;42.334;23.876;2022-11-27T05:04:24;56458.53;;;-140.56;73.82
10482;BME280;5288;42.334;23.876;2022-11-27T05:06:52;56492.13;;;-140.56;73.10
10482;BME280;5288;42.334;23.876;2022-11-27T05:09:21;56458.53;;;-140.56;72.99
10482;BME280;5288;42.334;23.876;2022-11-27T05:11:47;56484.22;;;-140.56;73.72
10482;BME280;5288;42.334;23.876;2022-11-27T05:14:15;56442.72;;;-140.56;72.77
10482;BME280;5288;42.334;23.876;2022-11-27T05:16:44;56442.72;;;-140.56;73.08
10482;BME280;5288;42.334;23.876;2022-11-27T05:19:12;56474.34;;;-140.56;74.02
10482;BME280;5288;42.334;23.876;2022-11-27T05:21:40;56458.53;;;-140.56;73.74
10482;BME280;5288;42.334;23.876;2022-11-27T05:24:08;56446.69;;;-140.56;74.02
10482;BME280;5288;42.334;23.876;2022-11-27T05:26:37;56446.69;;;-140.56;74.08
10482;BME280;5288;42.334;23.876;2022-11-27T05:29:05;56488.19;;;-140.56;74.45
10482;BME280;5288;42.334;23.876;2022-11-27T05:31:33;56476.31;;;-140.56;74.17
10482;BME280;5288;42.334;23.876;2022-11-27T05:34:00;56438.78;;;-140.56;74.64
10482;BME280;5288;42.334;23.876;2022-11-27T05:36:27;56450.63;;;-140.56;74.56
10482;BME280;5288;42.334;23.876;2022-11-27T05:38:54;56478.28;;;-140.56;74.56
10482;BME280;5288;42.334;23.876;2022-11-27T05:41:22;56450.63;;;-140.56;74.74
10482;BME280;5288;42.334;23.876;2022-11-27T05:43:52;56460.50;;;-140.56;74.07
10482;BME280;5288;42.334;23.876;2022-11-27T05:46:21;56460.50;;;-140.56;74.84
10482;BME280;5288;42.334;23.876;2022-11-27T05:48:48;56428.88;;;-140.56;74.50
10482;BME280;5288;42.334;23.876;2022-11-27T05:51:16;56444.69;;;-140.56;74.30
10482;BME280;5288;42.334;23.876;2022-11-27T05:53:43;56470.38;;;-140.56;74.40
10482;BME280;5288;42.334;23.876;2022-11-27T05:56:12;56432.84;;;-140.56;73.42
10482;BME280;5288;42.334;23.876;2022-11-27T05:58:40;56440.75;;;-140.56;74.08
10482;BME280;5288;42.334;23.876;2022-11-27T06:01:10;56426.91;;;-140.56;73.90
10482;BME280;5288;42.334;23.876;2022-11-27T06:03:37;56458.53;;;-140.56;73.63
10482;BME280;5288;42.334;23.876;2022-11-27T06:06:05;56428.88;;;-140.56;73.01
10482;BME280;5288;42.334;23.876;2022-11-27T06:08:34;56442.72;;;-140.56;72.95
10482;BME280;5288;42.334;23.876;2022-11-27T06:11:05;56446.69;;;-140.56;73.02
10482;BME280;5288;42.334;23.876;2022-11-27T06:13:33;56436.78;;;-140.56;73.14
10482;BME280;5288;42.334;23.876;2022-11-27T06:16:04;56484.22;;;-140.56;73.40
10482;BME280;5288;42.334;23.876;2022-11-27T06:18:33;56470.38;;;-140.56;73.21
10482;BME280;5288;42.334;23.876;2022-11-27T06:21:00;56448.66;;;-140.56;73.07
10482;BME280;5288;42.334;23.876;2022-11-27T06:23:27;56472.38;;;-140.56;73.94
10482;BME280;5288;42.334;23.876;2022-11-27T06:25:54;56474.34;;;-140.56;73.33
10482;BME280;5288;42.334;23.876;2022-11-27T06:28:21;56476.31;;;-140.56;73.39
10482;BME280;5288;42.334;23.876;2022-11-27T06:30:48;56458.53;;;-140.56;72.40
10482;BME280;5288;42.334;23.876;2022-11-27T06:33:15;56464.47;;;-140.56;72.88
10482;BME280;5288;42.334;23.876;2022-11-27T06:35:43;56454.59;;;-140.56;73.60
10482;BME280;5288;42.334;23.876;2022-11-27T06:38:10;56470.38;;;-140.56;73.07
10482;BME280;5288;42.334;23.876;2022-11-27T06:40:37;56472.38;;;-140.56;73.58
10482;BME280;5288;42.334;23.876;2022-11-27T06:43:04;56466.44;;;-140.56;74.08
10482;BME280;5288;42.334;23.876;2022-11-27T06:45:31;56484.22;;;-140.56;73.20
10482;BME280;5288;42.334;23.876;2022-11-27T06:47:58;56458.53;;;-140.56;73.67
10482;BME280;5288;42.334;23.876;2022-11-27T06:50:25;56472.38;;;-140.56;73.48
10482;BME280;5288;42.334;23.876;2022-11-27T06:52:54;56470.38;;;-140.56;73.39
10482;BME280;5288;42.334;23.876;2022-11-27T06:55:21;56420.97;;;-140.56;73.09
10482;BME280;5288;42.334;23.876;2022-11-27T06:57:49;56464.47;;;-140.56;73.13
10482;BME280;5288;42.334;23.876;2022-11-27T07:00:17;56458.53;;;-140.56;72.69
10482;BME280;5288;42.334;23.876;2022-11-27T07:02:44;56464.47;;;-140.56;72.60
10482;BME280;5288;42.334;23.876;2022-11-27T07:05:11;56478.28;;;-140.56;73.10
10482;BME280;5288;42.334;23.876;2022-11-27T07:07:38;56424.94;;;-140.56;72.77
10482;BME280;5288;42.334;23.876;2022-11-27T07:10:08;56442.72;;;-140.56;72.70
10482;BME280;5288;42.334;23.876;2022-11-27T07:12:35;56462.47;;;-140.56;73.13
10482;BME280;5288;42.334;23.876;2022-11-27T07:15:02;56456.56;;;-140.56;72.93
10482;BME280;5288;42.334;23.876;2022-11-27T07:17:29;56442.72;;;-140.56;73.22
10482;BME280;5288;42.334;23.876;2022-11-27T07:19:56;56456.56;;;-140.56;73.10
10482;BME280;5288;42.334;23.876;2022-11-27T07:22:23;56440.75;;;-140.56;73.45
10482;BME280;5288;42.334;23.876;2022-11-27T07:24:50;56440.75;;;-140.56;73.73
10482;BME280;5288;42.334;23.876;2022-11-27T07:27:18;56432.84;;;-140.56;73.44
10482;BME280;5288;42.334;23.876;2022-11-27T07:29:45;56415.06;;;-140.56;73.80
10482;BME280;5288;42.334;23.876;2022-11-27T07:32:12;56428.88;;;-140.56;73.22
10482;BME280;5288;42.334;23.876;2022-11-27T07:34:39;56434.81;;;-140.56;73.74
10482;BME280;5288;42.334;23.876;2022-11-27T07:37:06;56466.44;;;-140.56;73.08
10482;BME280;5288;42.334;23.876;2022-11-27T07:39:33;56413.06;;;-140.56;72.79
10482;BME280;5288;42.334;23.876;2022-11-27T07:42:00;56428.88;;;-140.56;73.10
10482;BME280;5288;42.334;23.876;2022-11-27T07:44:29;56436.78;;;-140.56;72.99
10482;BME280;5288;42.334;23.876;2022-11-27T07:46:56;56444.69;;;-140.56;72.38
10482;BME280;5288;42.334;23.876;2022-11-27T07:49:23;56442.72;;;-140.56;72.20
10482;BME280;5288;42.334;23.876;2022-11-27T07:51:50;56419.00;;;-140.56;73.21
10482;BME280;5288;42.334;23.876;2022-11-27T07:54:17;56448.66;;;-140.56;72.56
10482;BME280;5288;42.334;23.876;2022-11-27T07:56:44;56442.72;;;-140.56;72.34
10482;BME280;5288;42.334;23.876;2022-11-27T07:59:11;56436.78;;;-140.56;72.00
10482;BME280;5288;42.334;23.876;2022-11-27T08:01:40;56422.97;;;-140.56;71.66
10482;BME280;5288;42.334;23.876;2022-11-27T08:04:07;56426.91;;;-140.56;70.93
10482;BME280;5288;42.334;23.876;2022-11-27T08:06:34;56405.16;;;-140.56;70.11
10482;BME280;5288;42.334;23.876;2022-11-27T08:09:02;56420.97;;;-140.56;69.94
10482;BME280;5288;42.334;23.876;2022-11-27T08:11:31;56413.06;;;-140.56;69.17
10482;BME280;5288;42.334;23.876;2022-11-27T08:14:01;56456.56;;;-140.56;68.85
10482;BME280;5288;42.334;23.876;2022-11-27T08:16:29;56442.72;;;-140.56;68.63
10482;BME280;5288;42.334;23.876;2022-11-27T08:18:58;56426.91;;;-140.56;68.42
10482;BME280;5288;42.334;23.876;2022-11-27T08:21:26;56422.97;;;-140.56;69.03
10482;BME280;5288;42.334;23.876;2022-11-27T08:23:53;56411.09;;;-140.56;69.56
10482;BME280;5288;42.334;23.876;2022-11-27T08:26:20;56436.78;;;-140.56;69.70
10482;BME280;5288;42.334;23.876;2022-11-27T08:28:49;56458.53;;;-140.56;69.27
10482;BME280;5288;42.334;23.876;2022-11-27T08:31:17;56426.91;;;-140.56;69.38
10482;BME280;5288;42.334;23.876;2022-11-27T08:33:45;56419.00;;;-140.56;69.14
10482;BME280;5288;42.334;23.876;2022-11-27T08:36:14;56409.13;;;-140.56;68.93
10482;BME280;5288;42.334;23.876;2022-11-27T08:38:41;56407.16;;;-140.56;68.16
10482;BME280;5288;42.334;23.876;2022-11-27T08:41:08;56417.03;;;-140.56;68.12
10482;BME280;5288;42.334;23.876;2022-11-27T08:43:35;56407.16;;;-140.56;68.18
10482;BME280;5288;42.334;23.876;2022-11-27T08:46:03;56413.06;;;-140.56;67.75
10482;BME280;5288;42.334;23.876;2022-11-27T08:48:32;56389.34;;;-140.56;66.70
10482;BME280;5288;42.334;23.876;2022-11-27T08:51:04;56401.22;;;-140.56;66.26
10482;BME280;5288;42.334;23.876;2022-11-27T08:53:33;56411.09;;;-140.56;66.12
10482;BME280;5288;42.334;23.876;2022-11-27T08:56:05;56428.88;;;-140.56;66.52
10482;BME280;5288;42.334;23.876;2022-11-27T08:58:32;56381.44;;;-140.56;66.30
10482;BME280;5288;42.334;23.876;2022-11-27T09:01:06;56391.34;;;-140.56;65.58
10482;BME280;5288;42.334;23.876;2022-11-27T09:03:32;56389.34;;;-140.56;65.22
10482;BME280;5288;42.334;23.876;2022-11-27T09:05:59;56387.38;;;-140.56;65.37
10482;BME280;5288;42.334;23.876;2022-11-27T09:08:27;56424.94;;;-140.56;65.70
10482;BME280;5288;42.334;23.876;2022-11-27T09:10:58;56389.34;;;-140.56;65.79
10482;BME280;5288;42.334;23.876;2022-11-27T09:13:25;56417.03;;;-140.56;65.88
10482;BME280;5288;42.334;23.876;2022-11-27T09:15:54;56434.81;;;-140.56;66.09
10482;BME280;5288;42.334;23.876;2022-11-27T09:18:22;56426.91;;;-140.56;65.79
10482;BME280;5288;42.334;23.876;2022-11-27T09:20:55;56389.34;;;-140.56;65.52
10482;BME280;5288;42.334;23.876;2022-11-27T09:23:22;56413.06;;;-140.56;65.17
10482;BME280;5288;42.334;23.876;2022-11-27T09:25:49;56458.53;;;-140.56;64.85
10482;BME280;5288;42.334;23.876;2022-11-27T09:28:17;56407.16;;;-140.56;64.20
10482;BME280;5288;42.334;23.876;2022-11-27T09:30:45;56393.31;;;-140.56;63.59
10482;BME280;5288;42.334;23.876;2022-11-27T09:33:12;56393.31;;;-140.56;63.48
10482;BME280;5288;42.334;23.876;2022-11-27T09:35:39;56403.19;;;-140.56;63.08
10482;BME280;5288;42.334;23.876;2022-11-27T09:38:06;56413.06;;;-140.56;61.52
10482;BME280;5288;42.334;23.876;2022-11-27T09:40:34;56375.53;;;-140.56;61.16
10482;BME280;5288;42.334;23.876;2022-11-27T09:43:03;56371.56;;;-140.56;61.04
10482;BME280;5288;42.334;23.876;2022-11-27T09:45:39;56367.63;;;-140.56;59.31
10482;BME280;5288;42.334;23.876;2022-11-27T09:48:11;56373.56;;;-140.56;57.47
10482;BME280;5288;42.334;23.876;2022-11-27T09:50:43;56397.25;;;-140.56;56.79
10482;BME280;5288;42.334;23.876;2022-11-27T09:53:22;56389.34;;;-140.56;57.50
10482;BME280;5288;42.334;23.876;2022-11-27T09:55:53;56383.44;;;-140.56;56.36
10482;BME280;5288;42.334;23.876;2022-11-27T09:58:25;56373.56;;;-140.56;56.13
10482;BME280;5288;42.334;23.876;2022-11-27T10:00:54;56381.44;;;-140.56;56.36
10482;BME280;5288;42.334;23.876;2022-11-27T10:03:24;56401.22;;;-140.56;55.97
10482;BME280;5288;42.334;23.876;2022-11-27T10:06:00;56369.59;;;-140.56;55.37
10482;BME280;5288;42.334;23.876;2022-11-27T10:08:34;56403.19;;;-140.56;55.27
10482;BME280;5288;42.334;23.876;2022-11-27T10:11:12;56383.44;;;-140.56;55.39
10482;BME280;5288;42.334;23.876;2022-11-27T10:13:54;56395.28;;;-140.56;54.44
10482;BME280;5288;42.334;23.876;2022-11-27T10:16:33;56385.41;;;-140.56;54.31
10482;BME280;5288;42.334;23.876;2022-11-27T10:19:10;56377.50;;;-140.56;55.17
10482;BME280;5288;42.334;23.876;2022-11-27T10:21:47;56365.66;;;-140.56;54.10
10482;BME280;5288;42.334;23.876;2022-11-27T10:24:20;56381.44;;;-140.56;54.94
10482;BME280;5288;42.334;23.876;2022-11-27T10:26:52;56347.84;;;-140.56;54.82
10482;BME280;5288;42.334;23.876;2022-11-27T10:29:30;56371.56;;;-140.56;54.69
10482;BME280;5288;42.334;23.876;2022-11-27T10:32:04;56339.94;;;-140.56;53.08
10482;BME280;5288;42.334;23.876;2022-11-27T10:34:36;56369.59;;;-140.56;53.37
10482;BME280;5288;42.334;23.876;2022-11-27T10:37:10;56411.09;;;-140.56;53.34
10482;BME280;5288;42.334;23.876;2022-11-27T10:39:42;56397.25;;;-140.56;53.89
10482;BME280;5288;42.334;23.876;2022-11-27T10:42:16;56409.13;;;-140.56;54.38
10482;BME280;5288;42.334;23.876;2022-11-27T10:44:48;56369.59;;;-140.56;53.37
10482;BME280;5288;42.334;23.876;2022-11-27T10:47:19;56373.56;;;-140.56;53.30
10482;BME280;5288;42.334;23.876;2022-11-27T10:49:48;56397.25;;;-140.56;52.84
10482;BME280;5288;42.334;23.876;2022-11-27T10:52:17;56359.72;;;-140.56;52.90
10482;BME280;5288;42.334;23.876;2022-11-27T10:54:48;56351.81;;;-140.56;52.81
10482;BME280;5288;42.334;23.876;2022-11-27T10:57:47;56375.53;;;-140.56;52.55
10482;BME280;5288;42.334;23.876;2022-11-27T11:00:20;56357.75;;;-140.56;51.54
10482;BME280;5288;42.334;23.876;2022-11-27T11:02:58;56343.91;;;-140.56;51.54
10482;BME280;5288;42.334;23.876;2022-11-27T11:05:27;56359.72;;;-140.56;51.99
10482;BME280;5288;42.334;23.876;2022-11-27T11:07:57;56345.88;;;-140.56;50.85
10482;BME280;5288;42.334;23.876;2022-11-27T11:10:28;56355.75;;;-140.56;51.47
10482;BME280;5288;42.334;23.876;2022-11-27T11:13:13;56357.75;;;-140.56;51.40
10482;BME280;5288;42.334;23.876;2022-11-27T11:15:54;56349.84;;;-140.56;50.30
10482;BME280;5288;42.334;23.876;2022-11-27T11:18:25;56387.38;;;-140.56;52.21
10482;BME280;5288;42.334;23.876;2022-11-27T11:20:55;56377.50;;;-140.56;52.23
10482;BME280;5288;42.334;23.876;2022-11-27T11:23:26;56397.25;;;-140.56;51.49
10482;BME280;5288;42.334;23.876;2022-11-27T11:25:57;56345.88;;;-140.56;51.32
10482;BME280;5288;42.334;23.876;2022-11-27T11:28:26;56355.75;;;-140.56;50.77
10482;BME280;5288;42.334;23.876;2022-11-27T11:30:57;56351.81;;;-140.56;50.41
10482;BME280;5288;42.334;23.876;2022-11-27T11:33:27;56417.03;;;-140.56;50.72
10482;BME280;5288;42.334;23.876;2022-11-27T11:36:04;56361.69;;;-140.56;51.30
10482;BME280;5288;42.334;23.876;2022-11-27T11:38:33;56361.69;;;-140.56;52.11
10482;BME280;5288;42.334;23.876;2022-11-27T11:41:03;56367.63;;;-140.56;51.19
10482;BME280;5288;42.334;23.876;2022-11-27T11:43:33;56357.75;;;-140.56;52.05
10482;BME280;5288;42.334;23.876;2022-11-27T11:46:16;56389.34;;;-140.56;52.13
10482;BME280;5288;42.334;23.876;2022-11-27T11:49:00;56361.69;;;-140.56;52.30
10482;BME280;5288;42.334;23.876;2022-11-27T11:51:44;56326.13;;;-140.56;51.78
10482;BME280;5288;42.334;23.876;2022-11-27T11:54:29;56353.78;;;-140.56;52.14
10482;BME280;5288;42.334;23.876;2022-11-27T11:57:02;56389.34;;;-140.56;52.08
10482;BME280;5288;42.334;23.876;2022-11-27T11:59:37;56409.13;;;-140.56;52.06
10482;BME280;5288;42.334;23.876;2022-11-27T12:02:32;56365.66;;;-140.56;52.39
10482;BME280;5288;42.334;23.876;2022-11-27T12:05:17;56371.56;;;-140.56;52.38
10482;BME280;5288;42.334;23.876;2022-11-27T12:08:02;56334.03;;;-140.56;51.63
10482;BME280;5288;42.334;23.876;2022-11-27T12:10:35;56361.69;;;-140.56;50.80
10482;BME280;5288;42.334;23.876;2022-11-27T12:13:10;56363.66;;;-140.56;50.83
10482;BME280;5288;42.334;23.876;2022-11-27T12:15:48;56349.84;;;-140.56;51.93
10482;BME280;5288;42.334;23.876;2022-11-27T12:18:20;56375.53;;;-140.56;51.38
10482;BME280;5288;42.334;23.876;2022-11-27T12:21:00;56361.69;;;-140.56;50.54
10482;BME280;5288;42.334;23.876;2022-11-27T12:23:41;56336.00;;;-140.56;51.47
10482;BME280;5288;42.334;23.876;2022-11-27T12:26:21;56385.41;;;-140.56;52.04
10482;BME280;5288;42.334;23.876;2022-11-27T12:29:10;56393.31;;;-140.56;51.12
10482;BME280;5288;42.334;23.876;2022-11-27T12:31:58;56387.38;;;-140.56;50.95
10482;BME280;5288;42.334;23.876;2022-11-27T12:34:37;56387.38;;;-140.56;50.86
10482;BME280;5288;42.334;23.876;2022-11-27T12:37:18;56371.56;;;-140.56;50.76
10482;BME280;5288;42.334;23.876;2022-11-27T12:40:00;56365.66;;;-140.56;50.74
10482;BME280;5288;42.334;23.876;2022-11-27T12:42:33;56375.53;;;-140.56;50.52
10482;BME280;5288;42.334;23.876;2022-11-27T12:45:04;56385.41;;;-140.56;49.87
10482;BME280;5288;42.334;23.876;2022-11-27T12:47:41;56379.47;;;-140.56;50.33
10482;BME280;5288;42.334;23.876;2022-11-27T12:50:15;56337.97;;;-140.56;50.20
10482;BME280;5288;42.334;23.876;2022-11-27T12:53:01;56375.53;;;-140.56;49.40
10482;BME280;5288;42.334;23.876;2022-11-27T12:55:30;56381.44;;;-140.56;49.39
10482;BME280;5288;42.334;23.876;2022-11-27T12:58:01;56371.56;;;-140.56;49.64
10482;BME280;5288;42.334;23.876;2022-11-27T13:00:34;56373.56;;;-140.56;50.07